sensor_id;sensor_type;location;lat;lon;timestamp;P1;durP1;ratioP1;P2;durP2;ratioP2
30697;SDS011;17448;47.200;10.902;2023-03-23T00:01:03;8.65;;;3.20;;
30697;SDS011;17448;47.200;10.902;2023-03-23T00:03:29;6.32;;;3.63;;
30697;SDS011;17448;47.200;10.902;2023-03-23T00:05:57;6.80;;;3.00;;
30697;SDS011;17448;47.200;10.902;2023-03-23T00:08:30;4.40;;;3.30;;
30697;SDS011;17448;47.200;10.902;2023-03-23T00:10:56;5.32;;;3.38;;
30697;SDS011;17448;47.200;10.902;2023-03-23T00:13:23;7.15;;;3.72;;
30697;SDS011;17448;47.200;10.902;2023-03-23T00:15:49;6.88;;;3.58;;
30697;SDS011;17448;47.200;10.902;2023-03-23T00:18:17;4.65;;;3.63;;
30697;SDS011;17448;47.200;10.902;2023-03-23T00:20:47;6.75;;;3.83;;
30697;SDS011;17448;47.200;10.902;2023-03-23T00:23:24;8.50;;;4.22;;
30697;SDS011;17448;47.200;10.902;2023-03-23T00:25:52;9.52;;;4.20;;
30697;SDS011;17448;47.200;10.902;2023-03-23T00:28:22;5.35;;;3.92;;
30697;SDS011;17448;47.200;10.902;2023-03-23T00:30:54;8.98;;;3.88;;
30697;SDS011;17448;47.200;10.902;2023-03-23T00:33:22;10.88;;;3.83;;
30697;SDS011;17448;47.200;10.902;2023-03-23T00:35:49;3.78;;;3.40;;
30697;SDS011;17448;47.200;10.902;2023-03-23T00:38:18;6.45;;;3.70;;
30697;SDS011;17448;47.200;10.902;2023-03-23T00:40:45;5.43;;;3.80;;
30697;SDS011;17448;47.200;10.902;2023-03-23T00:43:14;4.45;;;3.38;;
30697;SDS011;17448;47.200;10.902;2023-03-23T00:45:41;7.00;;;4.10;;
30697;SDS011;17448;47.200;10.902;2023-03-23T00:48:10;6.20;;;4.18;;
30697;SDS011;17448;47.200;10.902;2023-03-23T00:50:39;7.10;;;4.07;;
30697;SDS011;17448;47.200;10.902;2023-03-23T00:53:06;6.15;;;4.13;;
30697;SDS011;17448;47.200;10.902;2023-03-23T00:55:32;4.60;;;3.83;;
30697;SDS011;17448;47.200;10.902;2023-03-23T00:57:59;5.50;;;3.88;;
30697;SDS011;17448;47.200;10.902;2023-03-23T01:00:25;5.30;;;4.10;;
30697;SDS011;17448;47.200;10.902;2023-03-23T01:02:52;5.85;;;3.60;;
30697;SDS011;17448;47.200;10.902;2023-03-23T01:05:18;6.43;;;4.32;;
30697;SDS011;17448;47.200;10.902;2023-03-23T01:07:45;5.68;;;3.92;;
30697;SDS011;17448;47.200;10.902;2023-03-23T01:10:12;4.95;;;3.70;;
30697;SDS011;17448;47.200;10.902;2023-03-23T01:12:45;7.05;;;4.07;;
30697;SDS011;17448;47.200;10.902;2023-03-23T01:15:16;6.63;;;3.50;;
30697;SDS011;17448;47.200;10.902;2023-03-23T01:17:43;9.05;;;4.20;;
30697;SDS011;17448;47.200;10.902;2023-03-23T01:20:09;4.70;;;3.40;;
30697;SDS011;17448;47.200;10.902;2023-03-23T01:22:37;5.70;;;3.47;;
30697;SDS011;17448;47.200;10.902;2023-03-23T01:25:04;6.63;;;3.75;;
30697;SDS011;17448;47.200;10.902;2023-03-23T01:27:30;3.60;;;2.92;;
30697;SDS011;17448;47.200;10.902;2023-03-23T01:29:56;7.72;;;3.88;;
30697;SDS011;17448;47.200;10.902;2023-03-23T01:32:22;7.95;;;4.30;;
30697;SDS011;17448;47.200;10.902;2023-03-23T01:34:49;9.55;;;3.42;;
30697;SDS011;17448;47.200;10.902;2023-03-23T01:37:15;8.18;;;3.55;;
30697;SDS011;17448;47.200;10.902;2023-03-23T01:39:42;8.43;;;3.83;;
30697;SDS011;17448;47.200;10.902;2023-03-23T01:42:09;4.65;;;3.72;;
30697;SDS011;17448;47.200;10.902;2023-03-23T01:47:04;6.93;;;4.00;;
30697;SDS011;17448;47.200;10.902;2023-03-23T01:49:36;5.38;;;3.97;;
30697;SDS011;17448;47.200;10.902;2023-03-23T01:52:13;5.90;;;3.45;;
30697;SDS011;17448;47.200;10.902;2023-03-23T01:54:43;6.47;;;3.90;;
30697;SDS011;17448;47.200;10.902;2023-03-23T01:57:15;8.77;;;4.15;;
30697;SDS011;17448;47.200;10.902;2023-03-23T01:59:43;5.72;;;3.85;;
30697;SDS011;17448;47.200;10.902;2023-03-23T02:02:17;7.60;;;3.97;;
30697;SDS011;17448;47.200;10.902;2023-03-23T02:04:44;5.05;;;3.95;;
30697;SDS011;17448;47.200;10.902;2023-03-23T02:07:11;6.40;;;3.63;;
30697;SDS011;17448;47.200;10.902;2023-03-23T02:09:38;5.45;;;3.83;;
30697;SDS011;17448;47.200;10.902;2023-03-23T02:12:04;5.47;;;4.18;;
30697;SDS011;17448;47.200;10.902;2023-03-23T02:14:31;10.05;;;4.65;;
30697;SDS011;17448;47.200;10.902;2023-03-23T02:29:35;6.45;;;3.90;;
30697;SDS011;17448;47.200;10.902;2023-03-23T02:37:44;5.20;;;3.88;;
30697;SDS011;17448;47.200;10.902;2023-03-23T02:40:30;6.45;;;4.57;;
30697;SDS011;17448;47.200;10.902;2023-03-23T02:42:57;5.97;;;4.18;;
30697;SDS011;17448;47.200;10.902;2023-03-23T02:45:25;8.15;;;4.60;;
30697;SDS011;17448;47.200;10.902;2023-03-23T02:47:53;6.40;;;4.15;;
30697;SDS011;17448;47.200;10.902;2023-03-23T02:50:20;5.70;;;4.22;;
30697;SDS011;17448;47.200;10.902;2023-03-23T02:52:47;7.20;;;4.50;;
30697;SDS011;17448;47.200;10.902;2023-03-23T02:55:14;6.28;;;4.32;;
30697;SDS011;17448;47.200;10.902;2023-03-23T02:57:41;6.57;;;4.20;;
30697;SDS011;17448;47.200;10.902;2023-03-23T03:00:13;5.90;;;4.47;;
30697;SDS011;17448;47.200;10.902;2023-03-23T03:02:41;7.35;;;4.70;;
30697;SDS011;17448;47.200;10.902;2023-03-23T03:05:13;6.00;;;4.38;;
30697;SDS011;17448;47.200;10.902;2023-03-23T03:10:24;7.55;;;4.40;;
30697;SDS011;17448;47.200;10.902;2023-03-23T03:12:56;5.53;;;4.72;;
30697;SDS011;17448;47.200;10.902;2023-03-23T03:18:07;6.57;;;4.78;;
30697;SDS011;17448;47.200;10.902;2023-03-23T03:20:38;7.45;;;4.45;;
30697;SDS011;17448;47.200;10.902;2023-03-23T03:23:06;7.25;;;4.78;;
30697;SDS011;17448;47.200;10.902;2023-03-23T03:25:34;8.25;;;4.50;;
30697;SDS011;17448;47.200;10.902;2023-03-23T03:28:01;8.20;;;4.00;;
30697;SDS011;17448;47.200;10.902;2023-03-23T03:30:38;5.78;;;4.50;;
30697;SDS011;17448;47.200;10.902;2023-03-23T03:33:09;9.30;;;4.45;;
30697;SDS011;17448;47.200;10.902;2023-03-23T03:35:37;6.95;;;4.72;;
30697;SDS011;17448;47.200;10.902;2023-03-23T03:38:08;6.47;;;4.47;;
30697;SDS011;17448;47.200;10.902;2023-03-23T03:40:35;7.60;;;4.63;;
30697;SDS011;17448;47.200;10.902;2023-03-23T03:43:02;9.73;;;5.20;;
30697;SDS011;17448;47.200;10.902;2023-03-23T03:45:29;5.97;;;4.47;;
30697;SDS011;17448;47.200;10.902;2023-03-23T03:47:55;5.50;;;4.32;;
30697;SDS011;17448;47.200;10.902;2023-03-23T03:50:21;5.45;;;4.47;;
30697;SDS011;17448;47.200;10.902;2023-03-23T03:52:48;5.22;;;4.50;;
30697;SDS011;17448;47.200;10.902;2023-03-23T03:55:14;6.55;;;4.80;;
30697;SDS011;17448;47.200;10.902;2023-03-23T03:57:44;9.23;;;4.70;;
30697;SDS011;17448;47.200;10.902;2023-03-23T04:00:30;6.35;;;4.50;;
30697;SDS011;17448;47.200;10.902;2023-03-23T04:02:56;6.82;;;4.18;;
30697;SDS011;17448;47.200;10.902;2023-03-23T04:05:40;5.28;;;3.92;;
30697;SDS011;17448;47.200;10.902;2023-03-23T04:08:10;6.18;;;4.40;;
30697;SDS011;17448;47.200;10.902;2023-03-23T04:10:37;6.70;;;4.38;;
30697;SDS011;17448;47.200;10.902;2023-03-23T04:13:03;6.63;;;4.68;;
30697;SDS011;17448;47.200;10.902;2023-03-23T04:15:29;7.55;;;4.05;;
30697;SDS011;17448;47.200;10.902;2023-03-23T04:17:56;6.90;;;4.07;;
30697;SDS011;17448;47.200;10.902;2023-03-23T04:20:23;5.25;;;3.83;;
30697;SDS011;17448;47.200;10.902;2023-03-23T04:22:50;8.60;;;3.90;;
30697;SDS011;17448;47.200;10.902;2023-03-23T04:25:18;5.28;;;3.83;;
30697;SDS011;17448;47.200;10.902;2023-03-23T04:27:50;8.52;;;4.35;;
30697;SDS011;17448;47.200;10.902;2023-03-23T04:30:28;6.22;;;4.10;;
30697;SDS011;17448;47.200;10.902;2023-03-23T04:33:02;7.78;;;5.43;;
30697;SDS011;17448;47.200;10.902;2023-03-23T04:35:29;5.13;;;3.78;;
30697;SDS011;17448;47.200;10.902;2023-03-23T04:38:17;6.47;;;5.18;;
30697;SDS011;17448;47.200;10.902;2023-03-23T04:40:52;7.85;;;5.47;;
30697;SDS011;17448;47.200;10.902;2023-03-23T04:43:37;6.63;;;4.75;;
30697;SDS011;17448;47.200;10.902;2023-03-23T04:46:32;7.60;;;4.45;;
30697;SDS011;17448;47.200;10.902;2023-03-23T04:49:05;7.75;;;4.68;;
30697;SDS011;17448;47.200;10.902;2023-03-23T04:51:35;7.15;;;5.05;;
30697;SDS011;17448;47.200;10.902;2023-03-23T04:54:32;6.93;;;5.45;;
30697;SDS011;17448;47.200;10.902;2023-03-23T04:57:00;8.38;;;4.50;;
30697;SDS011;17448;47.200;10.902;2023-03-23T04:59:27;7.32;;;4.50;;
30697;SDS011;17448;47.200;10.902;2023-03-23T05:02:22;7.43;;;5.00;;
30697;SDS011;17448;47.200;10.902;2023-03-23T05:04:48;7.25;;;4.72;;
30697;SDS011;17448;47.200;10.902;2023-03-23T05:07:18;8.30;;;5.07;;
30697;SDS011;17448;47.200;10.902;2023-03-23T05:09:47;7.25;;;5.15;;
30697;SDS011;17448;47.200;10.902;2023-03-23T05:12:16;7.28;;;5.00;;
30697;SDS011;17448;47.200;10.902;2023-03-23T05:14:56;7.60;;;5.75;;
30697;SDS011;17448;47.200;10.902;2023-03-23T05:17:25;7.85;;;6.00;;
30697;SDS011;17448;47.200;10.902;2023-03-23T05:19:54;9.35;;;6.18;;
30697;SDS011;17448;47.200;10.902;2023-03-23T05:22:48;8.20;;;5.70;;
30697;SDS011;17448;47.200;10.902;2023-03-23T05:25:18;8.82;;;5.72;;
30697;SDS011;17448;47.200;10.902;2023-03-23T05:27:49;8.60;;;5.22;;
30697;SDS011;17448;47.200;10.902;2023-03-23T05:30:36;8.15;;;5.60;;
30697;SDS011;17448;47.200;10.902;2023-03-23T05:33:04;10.57;;;6.15;;
30697;SDS011;17448;47.200;10.902;2023-03-23T05:35:45;6.68;;;5.30;;
30697;SDS011;17448;47.200;10.902;2023-03-23T05:38:12;12.02;;;5.78;;
30697;SDS011;17448;47.200;10.902;2023-03-23T05:40:39;7.40;;;5.18;;
30697;SDS011;17448;47.200;10.902;2023-03-23T05:43:22;9.20;;;5.47;;
30697;SDS011;17448;47.200;10.902;2023-03-23T05:46:05;8.43;;;5.07;;
30697;SDS011;17448;47.200;10.902;2023-03-23T05:48:33;8.07;;;5.63;;
30697;SDS011;17448;47.200;10.902;2023-03-23T05:51:00;7.70;;;5.43;;
30697;SDS011;17448;47.200;10.902;2023-03-23T05:59:35;7.80;;;5.90;;
30697;SDS011;17448;47.200;10.902;2023-03-23T06:08:10;9.87;;;5.53;;
30697;SDS011;17448;47.200;10.902;2023-03-23T06:13:12;6.85;;;5.55;;
30697;SDS011;17448;47.200;10.902;2023-03-23T06:15:46;7.07;;;5.47;;
30697;SDS011;17448;47.200;10.902;2023-03-23T06:21:08;6.35;;;5.07;;
30697;SDS011;17448;47.200;10.902;2023-03-23T06:23:57;7.65;;;4.80;;
30697;SDS011;17448;47.200;10.902;2023-03-23T06:26:30;6.35;;;4.75;;
30697;SDS011;17448;47.200;10.902;2023-03-23T06:28:59;5.90;;;4.90;;
30697;SDS011;17448;47.200;10.902;2023-03-23T06:31:28;9.02;;;5.70;;
30697;SDS011;17448;47.200;10.902;2023-03-23T06:33:55;6.45;;;4.95;;
30697;SDS011;17448;47.200;10.902;2023-03-23T06:36:24;12.85;;;5.38;;
30697;SDS011;17448;47.200;10.902;2023-03-23T06:39:08;9.57;;;4.68;;
30697;SDS011;17448;47.200;10.902;2023-03-23T06:50:28;11.48;;;4.75;;
30697;SDS011;17448;47.200;10.902;2023-03-23T06:52:55;8.32;;;5.03;;
30697;SDS011;17448;47.200;10.902;2023-03-23T06:55:21;8.38;;;4.90;;
30697;SDS011;17448;47.200;10.902;2023-03-23T06:57:47;10.60;;;4.97;;
30697;SDS011;17448;47.200;10.902;2023-03-23T07:00:14;10.80;;;4.88;;
30697;SDS011;17448;47.200;10.902;2023-03-23T07:02:41;6.63;;;4.35;;
30697;SDS011;17448;47.200;10.902;2023-03-23T07:05:08;8.57;;;4.40;;
30697;SDS011;17448;47.200;10.902;2023-03-23T07:07:36;8.82;;;4.40;;
30697;SDS011;17448;47.200;10.902;2023-03-23T07:10:24;11.10;;;4.80;;
30697;SDS011;17448;47.200;10.902;2023-03-23T07:12:51;10.00;;;5.97;;
30697;SDS011;17448;47.200;10.902;2023-03-23T07:26:34;8.73;;;6.18;;
30697;SDS011;17448;47.200;10.902;2023-03-23T07:32:06;11.90;;;5.63;;
30697;SDS011;17448;47.200;10.902;2023-03-23T07:34:32;9.10;;;6.35;;
30697;SDS011;17448;47.200;10.902;2023-03-23T07:37:11;13.55;;;6.85;;
30697;SDS011;17448;47.200;10.902;2023-03-23T07:39:40;8.48;;;6.03;;
30697;SDS011;17448;47.200;10.902;2023-03-23T07:44:58;12.40;;;6.80;;
30697;SDS011;17448;47.200;10.902;2023-03-23T07:47:26;10.88;;;6.47;;
30697;SDS011;17448;47.200;10.902;2023-03-23T07:49:53;11.68;;;6.00;;
30697;SDS011;17448;47.200;10.902;2023-03-23T08:03:56;8.48;;;6.43;;
30697;SDS011;17448;47.200;10.902;2023-03-23T08:15:59;7.93;;;5.23;;
30697;SDS011;17448;47.200;10.902;2023-03-23T08:18:47;9.27;;;5.50;;
30697;SDS011;17448;47.200;10.902;2023-03-23T08:21:33;9.55;;;5.60;;
30697;SDS011;17448;47.200;10.902;2023-03-23T08:32:49;10.20;;;5.40;;
30697;SDS011;17448;47.200;10.902;2023-03-23T08:41:51;11.07;;;5.13;;
30697;SDS011;17448;47.200;10.902;2023-03-23T08:58:53;5.25;;;3.90;;
30697;SDS011;17448;47.200;10.902;2023-03-23T09:04:44;5.80;;;5.10;;
30697;SDS011;17448;47.200;10.902;2023-03-23T09:10:34;8.02;;;5.82;;
30697;SDS011;17448;47.200;10.902;2023-03-23T09:13:00;8.23;;;5.97;;
30697;SDS011;17448;47.200;10.902;2023-03-23T09:18:16;7.35;;;5.75;;
30697;SDS011;17448;47.200;10.902;2023-03-23T09:20:42;7.22;;;5.50;;
30697;SDS011;17448;47.200;10.902;2023-03-23T09:23:09;10.50;;;7.03;;
30697;SDS011;17448;47.200;10.902;2023-03-23T09:29:03;9.18;;;5.97;;
30697;SDS011;17448;47.200;10.902;2023-03-23T09:31:29;7.60;;;5.47;;
30697;SDS011;17448;47.200;10.902;2023-03-23T09:33:56;9.65;;;6.00;;
30697;SDS011;17448;47.200;10.902;2023-03-23T09:36:24;7.78;;;5.65;;
30697;SDS011;17448;47.200;10.902;2023-03-23T09:38:51;9.02;;;5.53;;
30697;SDS011;17448;47.200;10.902;2023-03-23T09:41:37;10.60;;;5.50;;
30697;SDS011;17448;47.200;10.902;2023-03-23T09:46:49;11.45;;;5.82;;
30697;SDS011;17448;47.200;10.902;2023-03-23T09:49:20;9.93;;;5.55;;
30697;SDS011;17448;47.200;10.902;2023-03-23T09:51:57;9.68;;;5.72;;
30697;SDS011;17448;47.200;10.902;2023-03-23T09:54:35;7.18;;;5.32;;
30697;SDS011;17448;47.200;10.902;2023-03-23T09:57:02;5.32;;;4.32;;
30697;SDS011;17448;47.200;10.902;2023-03-23T09:59:37;4.75;;;3.70;;
30697;SDS011;17448;47.200;10.902;2023-03-23T10:02:15;6.82;;;4.07;;
30697;SDS011;17448;47.200;10.902;2023-03-23T10:07:16;8.48;;;5.03;;
30697;SDS011;17448;47.200;10.902;2023-03-23T10:09:44;6.22;;;4.22;;
30697;SDS011;17448;47.200;10.902;2023-03-23T10:12:18;7.38;;;4.13;;
30697;SDS011;17448;47.200;10.902;2023-03-23T10:22:31;6.20;;;3.80;;
30697;SDS011;17448;47.200;10.902;2023-03-23T10:25:03;6.30;;;3.78;;
30697;SDS011;17448;47.200;10.902;2023-03-23T10:27:38;4.85;;;3.92;;
30697;SDS011;17448;47.200;10.902;2023-03-23T10:32:40;8.55;;;5.82;;
30697;SDS011;17448;47.200;10.902;2023-03-23T10:35:11;6.95;;;5.25;;
30697;SDS011;17448;47.200;10.902;2023-03-23T10:37:43;9.35;;;5.50;;
30697;SDS011;17448;47.200;10.902;2023-03-23T10:40:17;9.77;;;5.03;;
30697;SDS011;17448;47.200;10.902;2023-03-23T10:42:44;5.85;;;4.88;;
30697;SDS011;17448;47.200;10.902;2023-03-23T10:45:17;8.50;;;4.80;;
30697;SDS011;17448;47.200;10.902;2023-03-23T10:47:49;6.82;;;4.82;;
30697;SDS011;17448;47.200;10.902;2023-03-23T10:50:21;7.93;;;5.75;;
30697;SDS011;17448;47.200;10.902;2023-03-23T10:52:49;10.55;;;5.90;;
30697;SDS011;17448;47.200;10.902;2023-03-23T10:55:22;7.90;;;6.15;;
30697;SDS011;17448;47.200;10.902;2023-03-23T10:57:59;9.57;;;7.40;;
30697;SDS011;17448;47.200;10.902;2023-03-23T11:03:39;9.10;;;6.13;;
30697;SDS011;17448;47.200;10.902;2023-03-23T11:08:52;8.85;;;7.10;;
30697;SDS011;17448;47.200;10.902;2023-03-23T11:11:20;7.32;;;5.80;;
30697;SDS011;17448;47.200;10.902;2023-03-23T11:13:49;13.50;;;6.40;;
30697;SDS011;17448;47.200;10.902;2023-03-23T11:16:25;8.75;;;6.40;;
30697;SDS011;17448;47.200;10.902;2023-03-23T11:18:53;7.55;;;5.88;;
30697;SDS011;17448;47.200;10.902;2023-03-23T11:24:09;10.57;;;7.75;;
30697;SDS011;17448;47.200;10.902;2023-03-23T11:26:35;13.23;;;8.85;;
30697;SDS011;17448;47.200;10.902;2023-03-23T11:31:30;11.18;;;7.97;;
30697;SDS011;17448;47.200;10.902;2023-03-23T11:34:04;13.38;;;8.90;;
30697;SDS011;17448;47.200;10.902;2023-03-23T11:36:32;13.30;;;8.55;;
30697;SDS011;17448;47.200;10.902;2023-03-23T11:38:59;11.82;;;8.13;;
30697;SDS011;17448;47.200;10.902;2023-03-23T11:57:49;12.43;;;9.60;;
30697;SDS011;17448;47.200;10.902;2023-03-23T12:00:16;12.55;;;9.23;;
30697;SDS011;17448;47.200;10.902;2023-03-23T12:05:50;17.77;;;9.18;;
30697;SDS011;17448;47.200;10.902;2023-03-23T12:11:13;11.90;;;8.05;;
30697;SDS011;17448;47.200;10.902;2023-03-23T12:19:01;17.60;;;8.88;;
30697;SDS011;17448;47.200;10.902;2023-03-23T12:21:33;13.13;;;8.82;;
30697;SDS011;17448;47.200;10.902;2023-03-23T12:27:15;13.18;;;9.15;;
30697;SDS011;17448;47.200;10.902;2023-03-23T12:37:36;17.00;;;10.38;;
30697;SDS011;17448;47.200;10.902;2023-03-23T12:47:50;12.65;;;10.38;;
30697;SDS011;17448;47.200;10.902;2023-03-23T12:50:29;18.38;;;10.90;;
30697;SDS011;17448;47.200;10.902;2023-03-23T12:58:11;15.27;;;10.27;;
30697;SDS011;17448;47.200;10.902;2023-03-23T13:00:50;16.83;;;9.77;;
30697;SDS011;17448;47.200;10.902;2023-03-23T13:03:22;15.23;;;10.57;;
30697;SDS011;17448;47.200;10.902;2023-03-23T13:06:04;17.33;;;11.32;;
30697;SDS011;17448;47.200;10.902;2023-03-23T13:08:54;21.60;;;11.60;;
30697;SDS011;17448;47.200;10.902;2023-03-23T13:11:22;13.90;;;10.65;;
30697;SDS011;17448;47.200;10.902;2023-03-23T13:13:54;13.40;;;10.18;;
30697;SDS011;17448;47.200;10.902;2023-03-23T13:24:16;14.60;;;10.35;;
30697;SDS011;17448;47.200;10.902;2023-03-23T13:26:43;19.63;;;11.10;;
30697;SDS011;17448;47.200;10.902;2023-03-23T13:29:21;15.20;;;10.73;;
30697;SDS011;17448;47.200;10.902;2023-03-23T13:31:50;11.43;;;9.48;;
30697;SDS011;17448;47.200;10.902;2023-03-23T13:36:53;13.40;;;9.95;;
30697;SDS011;17448;47.200;10.902;2023-03-23T13:39:21;11.48;;;9.13;;
30697;SDS011;17448;47.200;10.902;2023-03-23T13:49:52;13.15;;;7.07;;
30697;SDS011;17448;47.200;10.902;2023-03-23T13:52:23;9.13;;;7.28;;
30697;SDS011;17448;47.200;10.902;2023-03-23T13:54:51;9.77;;;7.43;;
30697;SDS011;17448;47.200;10.902;2023-03-23T13:59:47;10.27;;;7.93;;
30697;SDS011;17448;47.200;10.902;2023-03-23T14:08:22;11.13;;;6.95;;
30697;SDS011;17448;47.200;10.902;2023-03-23T14:13:03;11.55;;;7.70;;
30697;SDS011;17448;47.200;10.902;2023-03-23T14:15:30;11.07;;;7.47;;
30697;SDS011;17448;47.200;10.902;2023-03-23T14:17:57;10.45;;;7.13;;
30697;SDS011;17448;47.200;10.902;2023-03-23T14:20:30;10.10;;;8.30;;
30697;SDS011;17448;47.200;10.902;2023-03-23T14:22:58;12.48;;;7.30;;
30697;SDS011;17448;47.200;10.902;2023-03-23T14:25:26;10.38;;;7.60;;
30697;SDS011;17448;47.200;10.902;2023-03-23T14:27:53;8.57;;;7.13;;
30697;SDS011;17448;47.200;10.902;2023-03-23T14:30:20;11.32;;;6.93;;
30697;SDS011;17448;47.200;10.902;2023-03-23T14:32:47;10.77;;;8.18;;
30697;SDS011;17448;47.200;10.902;2023-03-23T14:35:35;13.93;;;8.35;;
30697;SDS011;17448;47.200;10.902;2023-03-23T14:38:01;17.83;;;8.32;;
30697;SDS011;17448;47.200;10.902;2023-03-23T14:40:28;12.73;;;7.05;;
30697;SDS011;17448;47.200;10.902;2023-03-23T14:42:55;11.20;;;6.63;;
30697;SDS011;17448;47.200;10.902;2023-03-23T14:45:22;7.32;;;5.57;;
30697;SDS011;17448;47.200;10.902;2023-03-23T14:47:52;13.73;;;6.10;;
30697;SDS011;17448;47.200;10.902;2023-03-23T14:50:29;9.18;;;5.50;;
30697;SDS011;17448;47.200;10.902;2023-03-23T14:52:59;11.43;;;4.78;;
30697;SDS011;17448;47.200;10.902;2023-03-23T14:55:27;6.93;;;4.13;;
30697;SDS011;17448;47.200;10.902;2023-03-23T14:57:56;5.40;;;3.88;;
30697;SDS011;17448;47.200;10.902;2023-03-23T15:00:33;6.22;;;4.40;;
30697;SDS011;17448;47.200;10.902;2023-03-23T15:03:00;5.35;;;3.55;;
30697;SDS011;17448;47.200;10.902;2023-03-23T15:05:29;6.32;;;3.40;;
30697;SDS011;17448;47.200;10.902;2023-03-23T15:08:06;4.82;;;4.13;;
30697;SDS011;17448;47.200;10.902;2023-03-23T15:10:33;6.25;;;3.50;;
30697;SDS011;17448;47.200;10.902;2023-03-23T15:12:59;6.25;;;2.80;;
30697;SDS011;17448;47.200;10.902;2023-03-23T15:15:33;7.85;;;3.20;;
30697;SDS011;17448;47.200;10.902;2023-03-23T15:18:00;7.70;;;3.53;;
30697;SDS011;17448;47.200;10.902;2023-03-23T15:20:28;6.30;;;3.88;;
30697;SDS011;17448;47.200;10.902;2023-03-23T15:22:55;8.15;;;3.83;;
30697;SDS011;17448;47.200;10.902;2023-03-23T15:27:54;9.45;;;3.80;;
30697;SDS011;17448;47.200;10.902;2023-03-23T15:32:51;7.30;;;3.28;;
30697;SDS011;17448;47.200;10.902;2023-03-23T15:35:19;7.53;;;3.53;;
30697;SDS011;17448;47.200;10.902;2023-03-23T15:37:47;8.23;;;3.50;;
30697;SDS011;17448;47.200;10.902;2023-03-23T15:40:17;9.05;;;3.42;;
30697;SDS011;17448;47.200;10.902;2023-03-23T15:42:44;6.60;;;3.70;;
30697;SDS011;17448;47.200;10.902;2023-03-23T15:52:35;24.75;;;4.57;;
30697;SDS011;17448;47.200;10.902;2023-03-23T15:55:02;7.38;;;3.83;;
30697;SDS011;17448;47.200;10.902;2023-03-23T15:57:28;5.50;;;3.38;;
30697;SDS011;17448;47.200;10.902;2023-03-23T15:59:54;9.13;;;3.25;;
30697;SDS011;17448;47.200;10.902;2023-03-23T16:02:21;20.90;;;4.70;;
30697;SDS011;17448;47.200;10.902;2023-03-23T16:04:49;8.43;;;3.35;;
30697;SDS011;17448;47.200;10.902;2023-03-23T16:07:16;7.82;;;3.50;;
30697;SDS011;17448;47.200;10.902;2023-03-23T16:09:42;4.18;;;2.90;;
30697;SDS011;17448;47.200;10.902;2023-03-23T16:12:10;4.75;;;2.75;;
30697;SDS011;17448;47.200;10.902;2023-03-23T16:14:38;5.68;;;3.00;;
30697;SDS011;17448;47.200;10.902;2023-03-23T16:17:04;4.82;;;2.40;;
30697;SDS011;17448;47.200;10.902;2023-03-23T16:19:30;7.15;;;2.80;;
30697;SDS011;17448;47.200;10.902;2023-03-23T16:21:57;7.60;;;3.28;;
30697;SDS011;17448;47.200;10.902;2023-03-23T16:24:23;7.72;;;3.80;;
30697;SDS011;17448;47.200;10.902;2023-03-23T16:26:49;13.55;;;3.90;;
30697;SDS011;17448;47.200;10.902;2023-03-23T16:29:15;6.55;;;2.70;;
30697;SDS011;17448;47.200;10.902;2023-03-23T16:31:42;8.02;;;3.00;;
30697;SDS011;17448;47.200;10.902;2023-03-23T16:34:08;6.03;;;2.97;;
30697;SDS011;17448;47.200;10.902;2023-03-23T16:36:34;8.77;;;3.63;;
30697;SDS011;17448;47.200;10.902;2023-03-23T16:39:01;8.50;;;3.83;;
30697;SDS011;17448;47.200;10.902;2023-03-23T16:41:27;8.90;;;3.80;;
30697;SDS011;17448;47.200;10.902;2023-03-23T16:43:54;11.13;;;5.10;;
30697;SDS011;17448;47.200;10.902;2023-03-23T16:46:20;10.55;;;5.20;;
30697;SDS011;17448;47.200;10.902;2023-03-23T16:48:46;10.93;;;4.57;;
30697;SDS011;17448;47.200;10.902;2023-03-23T16:51:15;5.38;;;3.10;;
30697;SDS011;17448;47.200;10.902;2023-03-23T16:53:41;10.15;;;4.25;;
30697;SDS011;17448;47.200;10.902;2023-03-23T16:56:10;6.25;;;3.67;;
30697;SDS011;17448;47.200;10.902;2023-03-23T16:58:36;7.60;;;5.07;;
30697;SDS011;17448;47.200;10.902;2023-03-23T17:01:03;8.85;;;5.65;;
30697;SDS011;17448;47.200;10.902;2023-03-23T17:03:32;11.00;;;5.90;;
30697;SDS011;17448;47.200;10.902;2023-03-23T17:05:58;9.88;;;6.13;;
30697;SDS011;17448;47.200;10.902;2023-03-23T17:08:25;6.50;;;4.50;;
30697;SDS011;17448;47.200;10.902;2023-03-23T17:10:52;8.75;;;5.40;;
30697;SDS011;17448;47.200;10.902;2023-03-23T17:13:18;13.00;;;4.32;;
30697;SDS011;17448;47.200;10.902;2023-03-23T17:15:44;11.55;;;4.50;;
30697;SDS011;17448;47.200;10.902;2023-03-23T17:18:11;8.95;;;4.28;;
30697;SDS011;17448;47.200;10.902;2023-03-23T17:20:37;9.07;;;4.68;;
30697;SDS011;17448;47.200;10.902;2023-03-23T17:23:03;9.43;;;5.10;;
30697;SDS011;17448;47.200;10.902;2023-03-23T17:25:29;7.57;;;4.72;;
30697;SDS011;17448;47.200;10.902;2023-03-23T17:27:56;9.50;;;4.15;;
30697;SDS011;17448;47.200;10.902;2023-03-23T17:30:22;6.35;;;3.97;;
30697;SDS011;17448;47.200;10.902;2023-03-23T17:32:49;12.05;;;3.90;;
30697;SDS011;17448;47.200;10.902;2023-03-23T17:35:15;12.77;;;6.00;;
30697;SDS011;17448;47.200;10.902;2023-03-23T17:37:41;18.92;;;6.82;;
30697;SDS011;17448;47.200;10.902;2023-03-23T17:40:08;12.38;;;6.55;;
30697;SDS011;17448;47.200;10.902;2023-03-23T17:42:35;9.30;;;4.15;;
30697;SDS011;17448;47.200;10.902;2023-03-23T17:45:03;14.35;;;6.45;;
30697;SDS011;17448;47.200;10.902;2023-03-23T17:47:30;7.68;;;4.50;;
30697;SDS011;17448;47.200;10.902;2023-03-23T17:49:56;6.88;;;4.18;;
30697;SDS011;17448;47.200;10.902;2023-03-23T17:52:22;10.00;;;5.38;;
30697;SDS011;17448;47.200;10.902;2023-03-23T17:54:48;8.18;;;5.53;;
30697;SDS011;17448;47.200;10.902;2023-03-23T17:57:15;12.50;;;6.30;;
30697;SDS011;17448;47.200;10.902;2023-03-23T17:59:41;9.73;;;6.28;;
30697;SDS011;17448;47.200;10.902;2023-03-23T18:02:07;11.57;;;6.05;;
30697;SDS011;17448;47.200;10.902;2023-03-23T18:04:34;21.17;;;8.07;;
30697;SDS011;17448;47.200;10.902;2023-03-23T18:07:01;17.10;;;7.18;;
30697;SDS011;17448;47.200;10.902;2023-03-23T18:09:27;12.70;;;7.50;;
30697;SDS011;17448;47.200;10.902;2023-03-23T18:11:53;12.38;;;5.70;;
30697;SDS011;17448;47.200;10.902;2023-03-23T18:14:20;11.90;;;6.90;;
30697;SDS011;17448;47.200;10.902;2023-03-23T18:16:47;15.35;;;6.72;;
30697;SDS011;17448;47.200;10.902;2023-03-23T18:19:13;14.43;;;6.90;;
30697;SDS011;17448;47.200;10.902;2023-03-23T18:21:39;15.55;;;7.13;;
30697;SDS011;17448;47.200;10.902;2023-03-23T18:24:05;10.60;;;6.80;;
30697;SDS011;17448;47.200;10.902;2023-03-23T18:26:32;19.13;;;8.02;;
30697;SDS011;17448;47.200;10.902;2023-03-23T18:28:58;16.70;;;8.27;;
30697;SDS011;17448;47.200;10.902;2023-03-23T18:31:24;12.15;;;7.68;;
30697;SDS011;17448;47.200;10.902;2023-03-23T18:33:50;13.73;;;7.25;;
30697;SDS011;17448;47.200;10.902;2023-03-23T18:36:20;11.60;;;6.65;;
30697;SDS011;17448;47.200;10.902;2023-03-23T18:38:47;13.65;;;6.13;;
30697;SDS011;17448;47.200;10.902;2023-03-23T18:41:13;13.70;;;5.85;;
30697;SDS011;17448;47.200;10.902;2023-03-23T18:43:40;12.95;;;6.20;;
30697;SDS011;17448;47.200;10.902;2023-03-23T18:46:06;11.63;;;5.97;;
30697;SDS011;17448;47.200;10.902;2023-03-23T18:48:33;15.00;;;5.70;;
30697;SDS011;17448;47.200;10.902;2023-03-23T18:50:59;14.77;;;6.32;;
30697;SDS011;17448;47.200;10.902;2023-03-23T18:53:26;14.15;;;5.97;;
30697;SDS011;17448;47.200;10.902;2023-03-23T18:55:52;10.05;;;5.78;;
30697;SDS011;17448;47.200;10.902;2023-03-23T18:58:19;12.25;;;6.53;;